Airport View

Enter AWOS ICAO identifier for current METAR.

ex. KFNL

KPLN 251554Z AUTO 00000KT 10SM OVC033 02/01 A3029 RMK AO2 SLP264 T00170006

25 Oct 2020 16:53

Frequency: 119.025

Phone: 231-539-7700

Other Area AWOS: KMGN - KSLH - KMCD - KCVX

TAF KPLN 251130Z 2512/2612 00000KT P6SM BKN045 FM251600 VRB03KT P6SM OVC040 FM252100 VRB03KT P6SM VCSH OVC060 FM260000 00000KT P6SM VCSH OVC028 FM260300 VRB03KT 3SM -SHSN BR OVC018